sensor_id;sensor_type;location;lat;lon;timestamp;P1;durP1;ratioP1;P2;durP2;ratioP2
22205;SDS011;11272;50.104;8.754;2023-04-06T00:01:38;11.90;;;5.37;;
22205;SDS011;11272;50.104;8.754;2023-04-06T00:04:04;8.60;;;5.27;;
22205;SDS011;11272;50.104;8.754;2023-04-06T00:06:30;8.77;;;5.30;;
22205;SDS011;11272;50.104;8.754;2023-04-06T00:08:57;9.63;;;5.43;;
22205;SDS011;11272;50.104;8.754;2023-04-06T00:11:22;10.93;;;5.93;;
22205;SDS011;11272;50.104;8.754;2023-04-06T00:13:48;11.23;;;5.30;;
22205;SDS011;11272;50.104;8.754;2023-04-06T00:16:13;9.50;;;5.43;;
22205;SDS011;11272;50.104;8.754;2023-04-06T00:18:39;9.90;;;5.43;;
22205;SDS011;11272;50.104;8.754;2023-04-06T00:21:05;9.93;;;5.50;;
22205;SDS011;11272;50.104;8.754;2023-04-06T00:23:31;12.97;;;5.60;;
22205;SDS011;11272;50.104;8.754;2023-04-06T00:25:57;11.37;;;5.20;;
22205;SDS011;11272;50.104;8.754;2023-04-06T00:28:22;12.17;;;5.90;;
22205;SDS011;11272;50.104;8.754;2023-04-06T00:30:54;8.17;;;5.53;;
22205;SDS011;11272;50.104;8.754;2023-04-06T00:33:21;11.97;;;5.17;;
22205;SDS011;11272;50.104;8.754;2023-04-06T00:35:47;12.20;;;6.00;;
22205;SDS011;11272;50.104;8.754;2023-04-06T00:38:13;11.00;;;5.53;;
22205;SDS011;11272;50.104;8.754;2023-04-06T00:40:40;13.00;;;5.37;;
22205;SDS011;11272;50.104;8.754;2023-04-06T00:43:06;13.30;;;6.00;;
22205;SDS011;11272;50.104;8.754;2023-04-06T00:45:32;9.77;;;5.47;;
22205;SDS011;11272;50.104;8.754;2023-04-06T00:47:58;10.87;;;5.90;;
22205;SDS011;11272;50.104;8.754;2023-04-06T00:50:24;13.70;;;6.60;;
22205;SDS011;11272;50.104;8.754;2023-04-06T00:52:50;12.53;;;5.93;;
22205;SDS011;11272;50.104;8.754;2023-04-06T00:55:19;11.63;;;6.00;;
22205;SDS011;11272;50.104;8.754;2023-04-06T00:57:45;12.10;;;6.10;;
22205;SDS011;11272;50.104;8.754;2023-04-06T01:00:11;14.27;;;6.67;;
22205;SDS011;11272;50.104;8.754;2023-04-06T01:02:38;13.10;;;6.20;;
22205;SDS011;11272;50.104;8.754;2023-04-06T01:05:05;11.30;;;6.20;;
22205;SDS011;11272;50.104;8.754;2023-04-06T01:07:53;12.13;;;5.90;;
22205;SDS011;11272;50.104;8.754;2023-04-06T01:10:23;11.77;;;5.97;;
22205;SDS011;11272;50.104;8.754;2023-04-06T01:12:52;11.20;;;6.50;;
22205;SDS011;11272;50.104;8.754;2023-04-06T01:15:31;14.60;;;7.03;;
22205;SDS011;11272;50.104;8.754;2023-04-06T01:18:00;11.80;;;6.53;;
22205;SDS011;11272;50.104;8.754;2023-04-06T01:20:26;11.97;;;6.97;;
22205;SDS011;11272;50.104;8.754;2023-04-06T01:22:52;11.53;;;6.63;;
22205;SDS011;11272;50.104;8.754;2023-04-06T01:25:19;11.97;;;6.80;;
22205;SDS011;11272;50.104;8.754;2023-04-06T01:28:11;12.80;;;7.30;;
22205;SDS011;11272;50.104;8.754;2023-04-06T01:30:53;12.23;;;6.90;;
22205;SDS011;11272;50.104;8.754;2023-04-06T01:33:39;14.23;;;7.17;;
22205;SDS011;11272;50.104;8.754;2023-04-06T01:36:09;12.93;;;6.53;;
22205;SDS011;11272;50.104;8.754;2023-04-06T01:38:35;12.17;;;6.70;;
22205;SDS011;11272;50.104;8.754;2023-04-06T01:41:01;13.23;;;6.93;;
22205;SDS011;11272;50.104;8.754;2023-04-06T01:43:32;11.83;;;7.00;;
22205;SDS011;11272;50.104;8.754;2023-04-06T01:46:02;19.70;;;7.20;;
22205;SDS011;11272;50.104;8.754;2023-04-06T01:48:33;14.03;;;6.83;;
22205;SDS011;11272;50.104;8.754;2023-04-06T01:51:02;11.03;;;6.77;;
22205;SDS011;11272;50.104;8.754;2023-04-06T01:53:31;15.03;;;7.40;;
22205;SDS011;11272;50.104;8.754;2023-04-06T01:56:02;12.73;;;6.87;;
22205;SDS011;11272;50.104;8.754;2023-04-06T01:58:35;11.37;;;6.23;;
22205;SDS011;11272;50.104;8.754;2023-04-06T02:01:02;13.37;;;6.50;;
22205;SDS011;11272;50.104;8.754;2023-04-06T02:03:33;11.70;;;6.73;;
22205;SDS011;11272;50.104;8.754;2023-04-06T02:06:05;16.57;;;6.80;;
22205;SDS011;11272;50.104;8.754;2023-04-06T02:08:35;13.83;;;7.47;;
22205;SDS011;11272;50.104;8.754;2023-04-06T02:11:02;14.33;;;6.37;;
22205;SDS011;11272;50.104;8.754;2023-04-06T02:13:33;11.70;;;7.10;;
22205;SDS011;11272;50.104;8.754;2023-04-06T02:15:58;12.37;;;6.80;;
22205;SDS011;11272;50.104;8.754;2023-04-06T02:18:25;14.83;;;7.00;;
22205;SDS011;11272;50.104;8.754;2023-04-06T02:20:51;13.43;;;6.80;;
22205;SDS011;11272;50.104;8.754;2023-04-06T02:23:17;9.77;;;6.20;;
22205;SDS011;11272;50.104;8.754;2023-04-06T02:25:43;11.03;;;5.97;;
22205;SDS011;11272;50.104;8.754;2023-04-06T02:28:09;11.00;;;6.40;;
22205;SDS011;11272;50.104;8.754;2023-04-06T02:30:34;10.33;;;6.23;;
22205;SDS011;11272;50.104;8.754;2023-04-06T02:33:00;12.93;;;6.37;;
22205;SDS011;11272;50.104;8.754;2023-04-06T02:35:29;13.87;;;6.83;;
22205;SDS011;11272;50.104;8.754;2023-04-06T02:37:56;15.53;;;6.50;;
22205;SDS011;11272;50.104;8.754;2023-04-06T02:40:22;15.17;;;6.90;;
22205;SDS011;11272;50.104;8.754;2023-04-06T02:42:48;11.90;;;6.50;;
22205;SDS011;11272;50.104;8.754;2023-04-06T02:45:16;13.50;;;6.87;;
22205;SDS011;11272;50.104;8.754;2023-04-06T02:47:45;10.37;;;6.73;;
22205;SDS011;11272;50.104;8.754;2023-04-06T02:50:14;11.33;;;6.77;;
22205;SDS011;11272;50.104;8.754;2023-04-06T02:52:47;12.07;;;6.57;;
22205;SDS011;11272;50.104;8.754;2023-04-06T02:55:12;12.33;;;6.57;;
22205;SDS011;11272;50.104;8.754;2023-04-06T02:57:38;12.70;;;6.77;;
22205;SDS011;11272;50.104;8.754;2023-04-06T03:00:04;11.87;;;6.90;;
22205;SDS011;11272;50.104;8.754;2023-04-06T03:02:37;13.50;;;7.03;;
22205;SDS011;11272;50.104;8.754;2023-04-06T03:05:08;11.20;;;6.67;;
22205;SDS011;11272;50.104;8.754;2023-04-06T03:07:38;13.73;;;6.50;;
22205;SDS011;11272;50.104;8.754;2023-04-06T03:10:08;11.80;;;6.90;;
22205;SDS011;11272;50.104;8.754;2023-04-06T03:12:34;10.73;;;6.53;;
22205;SDS011;11272;50.104;8.754;2023-04-06T03:15:13;13.73;;;6.77;;
22205;SDS011;11272;50.104;8.754;2023-04-06T03:17:44;12.60;;;6.70;;
22205;SDS011;11272;50.104;8.754;2023-04-06T03:20:18;13.00;;;6.63;;
22205;SDS011;11272;50.104;8.754;2023-04-06T03:22:44;13.03;;;7.10;;
22205;SDS011;11272;50.104;8.754;2023-04-06T03:25:13;12.73;;;6.93;;
22205;SDS011;11272;50.104;8.754;2023-04-06T03:27:42;14.60;;;6.97;;
22205;SDS011;11272;50.104;8.754;2023-04-06T03:30:11;11.23;;;6.33;;
22205;SDS011;11272;50.104;8.754;2023-04-06T03:32:37;11.77;;;7.03;;
22205;SDS011;11272;50.104;8.754;2023-04-06T03:35:03;14.93;;;7.53;;
22205;SDS011;11272;50.104;8.754;2023-04-06T03:37:30;11.53;;;7.10;;
22205;SDS011;11272;50.104;8.754;2023-04-06T03:39:59;13.00;;;7.30;;
22205;SDS011;11272;50.104;8.754;2023-04-06T03:42:25;17.33;;;7.67;;
22205;SDS011;11272;50.104;8.754;2023-04-06T03:44:57;16.00;;;7.80;;
22205;SDS011;11272;50.104;8.754;2023-04-06T03:47:22;17.27;;;7.73;;
22205;SDS011;11272;50.104;8.754;2023-04-06T03:49:49;15.23;;;7.13;;
22205;SDS011;11272;50.104;8.754;2023-04-06T03:52:15;17.90;;;7.90;;
22205;SDS011;11272;50.104;8.754;2023-04-06T03:54:40;19.60;;;7.10;;
22205;SDS011;11272;50.104;8.754;2023-04-06T03:57:09;15.23;;;7.60;;
22205;SDS011;11272;50.104;8.754;2023-04-06T03:59:35;14.00;;;6.97;;
22205;SDS011;11272;50.104;8.754;2023-04-06T04:02:00;11.07;;;7.40;;
22205;SDS011;11272;50.104;8.754;2023-04-06T04:04:26;13.20;;;7.67;;
22205;SDS011;11272;50.104;8.754;2023-04-06T04:06:52;13.10;;;7.33;;
22205;SDS011;11272;50.104;8.754;2023-04-06T04:09:17;13.83;;;7.57;;
22205;SDS011;11272;50.104;8.754;2023-04-06T04:11:43;15.50;;;8.20;;
22205;SDS011;11272;50.104;8.754;2023-04-06T04:14:10;13.30;;;7.53;;
22205;SDS011;11272;50.104;8.754;2023-04-06T04:16:35;15.43;;;7.87;;
22205;SDS011;11272;50.104;8.754;2023-04-06T04:19:01;12.07;;;7.97;;
22205;SDS011;11272;50.104;8.754;2023-04-06T04:21:29;12.43;;;7.73;;
22205;SDS011;11272;50.104;8.754;2023-04-06T04:23:56;18.80;;;8.47;;
22205;SDS011;11272;50.104;8.754;2023-04-06T04:26:22;15.67;;;7.93;;
22205;SDS011;11272;50.104;8.754;2023-04-06T04:28:47;15.20;;;7.80;;
22205;SDS011;11272;50.104;8.754;2023-04-06T04:31:14;15.97;;;7.67;;
22205;SDS011;11272;50.104;8.754;2023-04-06T04:33:43;15.00;;;8.27;;
22205;SDS011;11272;50.104;8.754;2023-04-06T04:36:14;14.87;;;7.73;;
22205;SDS011;11272;50.104;8.754;2023-04-06T04:38:42;13.17;;;7.53;;
22205;SDS011;11272;50.104;8.754;2023-04-06T04:41:10;12.80;;;7.73;;
22205;SDS011;11272;50.104;8.754;2023-04-06T04:43:39;15.97;;;8.07;;
22205;SDS011;11272;50.104;8.754;2023-04-06T04:46:05;15.53;;;7.47;;
22205;SDS011;11272;50.104;8.754;2023-04-06T04:48:40;13.77;;;7.37;;
22205;SDS011;11272;50.104;8.754;2023-04-06T04:51:07;14.80;;;8.00;;
22205;SDS011;11272;50.104;8.754;2023-04-06T04:53:47;15.03;;;7.77;;
22205;SDS011;11272;50.104;8.754;2023-04-06T04:56:20;16.70;;;8.03;;
22205;SDS011;11272;50.104;8.754;2023-04-06T04:58:51;12.27;;;7.77;;
22205;SDS011;11272;50.104;8.754;2023-04-06T05:01:17;16.60;;;7.67;;
22205;SDS011;11272;50.104;8.754;2023-04-06T05:03:44;17.43;;;8.27;;
22205;SDS011;11272;50.104;8.754;2023-04-06T05:06:13;12.50;;;7.37;;
22205;SDS011;11272;50.104;8.754;2023-04-06T05:08:41;17.00;;;8.00;;
22205;SDS011;11272;50.104;8.754;2023-04-06T05:11:07;19.10;;;8.00;;
22205;SDS011;11272;50.104;8.754;2023-04-06T05:13:39;19.53;;;7.87;;
22205;SDS011;11272;50.104;8.754;2023-04-06T05:16:11;12.50;;;7.53;;
22205;SDS011;11272;50.104;8.754;2023-04-06T05:18:37;14.63;;;8.53;;
22205;SDS011;11272;50.104;8.754;2023-04-06T05:21:04;15.47;;;7.60;;
22205;SDS011;11272;50.104;8.754;2023-04-06T05:23:41;15.90;;;8.10;;
22205;SDS011;11272;50.104;8.754;2023-04-06T05:26:06;14.23;;;8.33;;
22205;SDS011;11272;50.104;8.754;2023-04-06T05:28:32;14.60;;;8.63;;
22205;SDS011;11272;50.104;8.754;2023-04-06T05:31:00;14.87;;;7.87;;
22205;SDS011;11272;50.104;8.754;2023-04-06T05:33:31;14.27;;;7.80;;
22205;SDS011;11272;50.104;8.754;2023-04-06T05:36:05;13.50;;;8.13;;
22205;SDS011;11272;50.104;8.754;2023-04-06T05:38:33;24.87;;;8.43;;
22205;SDS011;11272;50.104;8.754;2023-04-06T05:41:06;13.57;;;8.20;;
22205;SDS011;11272;50.104;8.754;2023-04-06T05:43:32;17.57;;;8.17;;
22205;SDS011;11272;50.104;8.754;2023-04-06T05:45:59;14.73;;;8.23;;
22205;SDS011;11272;50.104;8.754;2023-04-06T05:48:26;14.23;;;8.70;;
22205;SDS011;11272;50.104;8.754;2023-04-06T05:50:51;12.27;;;7.40;;
22205;SDS011;11272;50.104;8.754;2023-04-06T05:53:21;12.03;;;7.57;;
22205;SDS011;11272;50.104;8.754;2023-04-06T05:55:52;18.00;;;7.83;;
22205;SDS011;11272;50.104;8.754;2023-04-06T05:58:20;19.13;;;8.93;;
22205;SDS011;11272;50.104;8.754;2023-04-06T06:00:47;14.03;;;8.03;;
22205;SDS011;11272;50.104;8.754;2023-04-06T06:03:15;11.90;;;7.30;;
22205;SDS011;11272;50.104;8.754;2023-04-06T06:05:46;13.07;;;7.77;;
22205;SDS011;11272;50.104;8.754;2023-04-06T06:08:18;29.83;;;8.17;;
22205;SDS011;11272;50.104;8.754;2023-04-06T06:10:47;19.13;;;8.17;;
22205;SDS011;11272;50.104;8.754;2023-04-06T06:13:15;17.20;;;8.17;;
22205;SDS011;11272;50.104;8.754;2023-04-06T06:15:41;20.37;;;8.77;;
22205;SDS011;11272;50.104;8.754;2023-04-06T06:18:08;26.13;;;8.67;;
22205;SDS011;11272;50.104;8.754;2023-04-06T06:20:34;14.70;;;7.73;;
22205;SDS011;11272;50.104;8.754;2023-04-06T06:23:02;11.53;;;7.17;;
22205;SDS011;11272;50.104;8.754;2023-04-06T06:25:29;16.17;;;8.00;;
22205;SDS011;11272;50.104;8.754;2023-04-06T06:27:57;14.43;;;6.90;;
22205;SDS011;11272;50.104;8.754;2023-04-06T06:30:24;14.33;;;6.93;;
22205;SDS011;11272;50.104;8.754;2023-04-06T06:32:51;11.50;;;7.77;;
22205;SDS011;11272;50.104;8.754;2023-04-06T06:35:18;15.27;;;7.03;;
22205;SDS011;11272;50.104;8.754;2023-04-06T06:37:45;11.63;;;8.10;;
22205;SDS011;11272;50.104;8.754;2023-04-06T06:40:15;12.13;;;7.20;;
22205;SDS011;11272;50.104;8.754;2023-04-06T06:42:43;13.20;;;8.27;;
22205;SDS011;11272;50.104;8.754;2023-04-06T06:45:26;12.97;;;7.33;;
22205;SDS011;11272;50.104;8.754;2023-04-06T06:47:52;10.00;;;6.90;;
22205;SDS011;11272;50.104;8.754;2023-04-06T06:50:18;11.67;;;7.60;;
22205;SDS011;11272;50.104;8.754;2023-04-06T06:52:44;12.57;;;7.57;;
22205;SDS011;11272;50.104;8.754;2023-04-06T06:55:10;11.73;;;7.93;;
22205;SDS011;11272;50.104;8.754;2023-04-06T06:57:37;13.77;;;7.77;;
22205;SDS011;11272;50.104;8.754;2023-04-06T07:00:04;14.17;;;8.20;;
22205;SDS011;11272;50.104;8.754;2023-04-06T07:02:33;12.27;;;8.13;;
22205;SDS011;11272;50.104;8.754;2023-04-06T07:05:01;12.37;;;8.03;;
22205;SDS011;11272;50.104;8.754;2023-04-06T07:07:29;11.57;;;8.13;;
22205;SDS011;11272;50.104;8.754;2023-04-06T07:09:58;15.43;;;7.70;;
22205;SDS011;11272;50.104;8.754;2023-04-06T07:12:24;14.27;;;8.07;;
22205;SDS011;11272;50.104;8.754;2023-04-06T07:14:51;14.70;;;8.07;;
22205;SDS011;11272;50.104;8.754;2023-04-06T07:17:18;14.63;;;8.13;;
22205;SDS011;11272;50.104;8.754;2023-04-06T07:19:44;20.70;;;8.40;;
22205;SDS011;11272;50.104;8.754;2023-04-06T07:22:11;16.20;;;8.30;;
22205;SDS011;11272;50.104;8.754;2023-04-06T07:24:38;15.07;;;8.40;;
22205;SDS011;11272;50.104;8.754;2023-04-06T07:27:04;17.77;;;8.57;;
22205;SDS011;11272;50.104;8.754;2023-04-06T07:29:30;13.40;;;8.80;;
22205;SDS011;11272;50.104;8.754;2023-04-06T07:31:56;11.97;;;8.70;;
22205;SDS011;11272;50.104;8.754;2023-04-06T07:34:22;18.73;;;9.27;;
22205;SDS011;11272;50.104;8.754;2023-04-06T07:36:48;31.07;;;9.60;;
22205;SDS011;11272;50.104;8.754;2023-04-06T07:39:14;15.13;;;8.80;;
22205;SDS011;11272;50.104;8.754;2023-04-06T07:41:41;14.20;;;8.70;;
22205;SDS011;11272;50.104;8.754;2023-04-06T07:44:07;17.93;;;9.13;;
22205;SDS011;11272;50.104;8.754;2023-04-06T07:46:33;15.23;;;8.47;;
22205;SDS011;11272;50.104;8.754;2023-04-06T07:49:00;16.80;;;8.50;;
22205;SDS011;11272;50.104;8.754;2023-04-06T07:51:29;12.23;;;9.00;;
22205;SDS011;11272;50.104;8.754;2023-04-06T07:53:56;15.60;;;9.20;;
22205;SDS011;11272;50.104;8.754;2023-04-06T07:56:21;13.00;;;8.70;;
22205;SDS011;11272;50.104;8.754;2023-04-06T07:58:48;12.17;;;8.03;;
22205;SDS011;11272;50.104;8.754;2023-04-06T08:01:14;13.50;;;8.60;;
22205;SDS011;11272;50.104;8.754;2023-04-06T08:03:40;13.50;;;8.50;;
22205;SDS011;11272;50.104;8.754;2023-04-06T08:06:05;15.50;;;9.43;;
22205;SDS011;11272;50.104;8.754;2023-04-06T08:08:31;14.33;;;9.07;;
22205;SDS011;11272;50.104;8.754;2023-04-06T08:10:57;20.93;;;8.70;;
22205;SDS011;11272;50.104;8.754;2023-04-06T08:13:23;15.30;;;8.13;;
22205;SDS011;11272;50.104;8.754;2023-04-06T08:15:49;13.50;;;8.50;;
22205;SDS011;11272;50.104;8.754;2023-04-06T08:18:14;15.40;;;8.97;;
22205;SDS011;11272;50.104;8.754;2023-04-06T08:20:40;14.27;;;8.83;;
22205;SDS011;11272;50.104;8.754;2023-04-06T08:23:06;11.73;;;8.37;;
22205;SDS011;11272;50.104;8.754;2023-04-06T08:25:35;12.37;;;8.20;;
22205;SDS011;11272;50.104;8.754;2023-04-06T08:28:01;11.97;;;8.27;;
22205;SDS011;11272;50.104;8.754;2023-04-06T08:30:28;14.07;;;8.73;;
22205;SDS011;11272;50.104;8.754;2023-04-06T08:32:54;15.67;;;8.40;;
22205;SDS011;11272;50.104;8.754;2023-04-06T08:35:20;14.57;;;8.43;;
22205;SDS011;11272;50.104;8.754;2023-04-06T08:37:46;11.07;;;7.70;;
22205;SDS011;11272;50.104;8.754;2023-04-06T08:40:12;11.03;;;8.20;;
22205;SDS011;11272;50.104;8.754;2023-04-06T08:42:39;11.03;;;7.57;;
22205;SDS011;11272;50.104;8.754;2023-04-06T08:45:10;12.87;;;8.17;;
22205;SDS011;11272;50.104;8.754;2023-04-06T08:47:36;12.93;;;8.30;;
22205;SDS011;11272;50.104;8.754;2023-04-06T08:50:06;12.33;;;8.43;;
22205;SDS011;11272;50.104;8.754;2023-04-06T08:52:33;13.10;;;8.10;;
22205;SDS011;11272;50.104;8.754;2023-04-06T08:54:59;12.83;;;8.17;;
22205;SDS011;11272;50.104;8.754;2023-04-06T08:57:26;11.37;;;8.00;;
22205;SDS011;11272;50.104;8.754;2023-04-06T08:59:52;19.63;;;9.30;;
22205;SDS011;11272;50.104;8.754;2023-04-06T09:02:19;10.60;;;8.00;;
22205;SDS011;11272;50.104;8.754;2023-04-06T09:04:45;16.03;;;8.20;;
22205;SDS011;11272;50.104;8.754;2023-04-06T09:07:13;12.07;;;8.23;;
22205;SDS011;11272;50.104;8.754;2023-04-06T09:15:21;8.90;;;7.17;;
22205;SDS011;11272;50.104;8.754;2023-04-06T09:17:47;12.33;;;7.93;;
22205;SDS011;11272;50.104;8.754;2023-04-06T09:20:13;10.10;;;7.57;;
22205;SDS011;11272;50.104;8.754;2023-04-06T09:22:39;10.37;;;7.93;;
22205;SDS011;11272;50.104;8.754;2023-04-06T09:25:05;14.40;;;7.93;;
22205;SDS011;11272;50.104;8.754;2023-04-06T09:27:33;10.10;;;7.60;;
22205;SDS011;11272;50.104;8.754;2023-04-06T09:30:09;8.87;;;6.87;;
22205;SDS011;11272;50.104;8.754;2023-04-06T09:32:46;10.87;;;7.83;;
22205;SDS011;11272;50.104;8.754;2023-04-06T09:35:16;11.90;;;8.03;;
22205;SDS011;11272;50.104;8.754;2023-04-06T09:37:43;10.77;;;6.83;;
22205;SDS011;11272;50.104;8.754;2023-04-06T09:40:09;15.40;;;7.73;;
22205;SDS011;11272;50.104;8.754;2023-04-06T09:42:36;14.30;;;7.50;;
22205;SDS011;11272;50.104;8.754;2023-04-06T09:45:02;15.87;;;7.57;;
22205;SDS011;11272;50.104;8.754;2023-04-06T09:47:28;12.50;;;7.60;;
22205;SDS011;11272;50.104;8.754;2023-04-06T09:49:56;11.90;;;7.17;;
22205;SDS011;11272;50.104;8.754;2023-04-06T09:52:27;13.07;;;7.17;;
22205;SDS011;11272;50.104;8.754;2023-04-06T09:54:59;11.17;;;6.83;;
22205;SDS011;11272;50.104;8.754;2023-04-06T09:57:30;13.47;;;7.37;;
22205;SDS011;11272;50.104;8.754;2023-04-06T10:00:05;11.50;;;5.87;;
22205;SDS011;11272;50.104;8.754;2023-04-06T10:05:46;16.37;;;6.73;;
22205;SDS011;11272;50.104;8.754;2023-04-06T10:08:20;12.80;;;7.40;;
22205;SDS011;11272;50.104;8.754;2023-04-06T10:10:50;15.90;;;5.80;;
22205;SDS011;11272;50.104;8.754;2023-04-06T10:13:16;11.10;;;6.33;;
22205;SDS011;11272;50.104;8.754;2023-04-06T10:15:44;11.77;;;6.73;;
22205;SDS011;11272;50.104;8.754;2023-04-06T10:18:10;11.13;;;7.27;;
22205;SDS011;11272;50.104;8.754;2023-04-06T10:20:42;16.17;;;7.37;;
22205;SDS011;11272;50.104;8.754;2023-04-06T10:23:27;21.60;;;7.93;;
22205;SDS011;11272;50.104;8.754;2023-04-06T10:25:58;13.70;;;6.87;;
22205;SDS011;11272;50.104;8.754;2023-04-06T10:28:26;12.13;;;7.60;;
22205;SDS011;11272;50.104;8.754;2023-04-06T10:30:57;11.13;;;6.97;;
22205;SDS011;11272;50.104;8.754;2023-04-06T10:33:24;11.53;;;6.63;;
22205;SDS011;11272;50.104;8.754;2023-04-06T10:35:50;13.07;;;7.40;;
22205;SDS011;11272;50.104;8.754;2023-04-06T10:38:16;11.97;;;7.30;;
22205;SDS011;11272;50.104;8.754;2023-04-06T10:40:46;12.73;;;6.73;;
22205;SDS011;11272;50.104;8.754;2023-04-06T10:43:18;11.80;;;7.30;;
22205;SDS011;11272;50.104;8.754;2023-04-06T10:45:45;13.30;;;7.13;;
22205;SDS011;11272;50.104;8.754;2023-04-06T10:48:20;12.03;;;6.73;;
22205;SDS011;11272;50.104;8.754;2023-04-06T10:50:50;13.40;;;7.07;;
22205;SDS011;11272;50.104;8.754;2023-04-06T10:53:23;13.87;;;7.10;;
22205;SDS011;11272;50.104;8.754;2023-04-06T10:55:51;13.07;;;7.20;;
22205;SDS011;11272;50.104;8.754;2023-04-06T10:58:18;11.83;;;6.97;;
22205;SDS011;11272;50.104;8.754;2023-04-06T11:00:44;15.10;;;7.33;;
22205;SDS011;11272;50.104;8.754;2023-04-06T11:03:11;10.80;;;7.20;;
22205;SDS011;11272;50.104;8.754;2023-04-06T11:05:37;11.60;;;6.53;;
22205;SDS011;11272;50.104;8.754;2023-04-06T11:08:03;13.27;;;6.93;;
22205;SDS011;11272;50.104;8.754;2023-04-06T11:10:29;10.30;;;6.27;;
22205;SDS011;11272;50.104;8.754;2023-04-06T11:12:55;10.83;;;7.20;;
22205;SDS011;11272;50.104;8.754;2023-04-06T11:15:22;13.80;;;7.70;;
22205;SDS011;11272;50.104;8.754;2023-04-06T11:17:47;11.67;;;7.27;;
22205;SDS011;11272;50.104;8.754;2023-04-06T11:20:14;14.43;;;7.80;;
22205;SDS011;11272;50.104;8.754;2023-04-06T11:22:51;13.13;;;7.40;;
22205;SDS011;11272;50.104;8.754;2023-04-06T11:25:20;10.63;;;6.03;;
22205;SDS011;11272;50.104;8.754;2023-04-06T11:27:46;8.73;;;6.10;;
22205;SDS011;11272;50.104;8.754;2023-04-06T11:30:13;10.63;;;6.20;;
22205;SDS011;11272;50.104;8.754;2023-04-06T11:32:43;13.57;;;8.37;;
22205;SDS011;11272;50.104;8.754;2023-04-06T11:37:48;15.70;;;8.17;;
22205;SDS011;11272;50.104;8.754;2023-04-06T11:40:15;11.47;;;6.70;;
22205;SDS011;11272;50.104;8.754;2023-04-06T11:42:51;9.33;;;5.90;;
22205;SDS011;11272;50.104;8.754;2023-04-06T11:45:17;14.77;;;7.93;;
22205;SDS011;11272;50.104;8.754;2023-04-06T11:47:43;10.97;;;7.20;;
22205;SDS011;11272;50.104;8.754;2023-04-06T11:50:09;14.37;;;7.50;;
22205;SDS011;11272;50.104;8.754;2023-04-06T11:52:39;12.20;;;5.97;;
22205;SDS011;11272;50.104;8.754;2023-04-06T11:55:15;15.53;;;7.83;;
22205;SDS011;11272;50.104;8.754;2023-04-06T11:57:44;14.23;;;7.43;;
22205;SDS011;11272;50.104;8.754;2023-04-06T12:00:12;13.03;;;7.67;;
22205;SDS011;11272;50.104;8.754;2023-04-06T12:08:46;13.77;;;7.47;;
22205;SDS011;11272;50.104;8.754;2023-04-06T12:11:11;10.90;;;6.23;;
22205;SDS011;11272;50.104;8.754;2023-04-06T12:13:38;9.67;;;6.90;;
22205;SDS011;11272;50.104;8.754;2023-04-06T12:16:04;12.63;;;7.03;;
22205;SDS011;11272;50.104;8.754;2023-04-06T12:18:30;11.23;;;7.47;;
22205;SDS011;11272;50.104;8.754;2023-04-06T12:20:57;11.57;;;6.83;;
22205;SDS011;11272;50.104;8.754;2023-04-06T12:23:23;13.23;;;7.27;;
22205;SDS011;11272;50.104;8.754;2023-04-06T12:25:48;12.57;;;7.03;;
22205;SDS011;11272;50.104;8.754;2023-04-06T12:28:15;14.23;;;6.80;;
22205;SDS011;11272;50.104;8.754;2023-04-06T12:30:44;12.17;;;7.10;;
22205;SDS011;11272;50.104;8.754;2023-04-06T12:33:10;10.73;;;6.10;;
22205;SDS011;11272;50.104;8.754;2023-04-06T12:35:36;9.50;;;6.60;;
22205;SDS011;11272;50.104;8.754;2023-04-06T12:38:02;12.33;;;6.87;;
22205;SDS011;11272;50.104;8.754;2023-04-06T12:40:28;12.53;;;7.10;;
22205;SDS011;11272;50.104;8.754;2023-04-06T12:42:53;12.03;;;7.00;;
22205;SDS011;11272;50.104;8.754;2023-04-06T12:45:19;10.53;;;6.13;;
22205;SDS011;11272;50.104;8.754;2023-04-06T12:47:47;11.23;;;6.20;;
22205;SDS011;11272;50.104;8.754;2023-04-06T12:50:12;13.83;;;6.67;;
22205;SDS011;11272;50.104;8.754;2023-04-06T12:52:38;13.17;;;6.70;;
22205;SDS011;11272;50.104;8.754;2023-04-06T12:55:05;9.10;;;6.10;;
22205;SDS011;11272;50.104;8.754;2023-04-06T12:57:44;10.43;;;6.10;;
22205;SDS011;11272;50.104;8.754;2023-04-06T13:00:10;12.33;;;6.50;;
22205;SDS011;11272;50.104;8.754;2023-04-06T13:02:37;9.17;;;6.10;;
22205;SDS011;11272;50.104;8.754;2023-04-06T13:05:03;9.37;;;6.17;;
22205;SDS011;11272;50.104;8.754;2023-04-06T13:07:31;11.80;;;7.10;;
22205;SDS011;11272;50.104;8.754;2023-04-06T13:09:56;10.63;;;6.37;;
22205;SDS011;11272;50.104;8.754;2023-04-06T13:12:22;10.90;;;6.73;;
22205;SDS011;11272;50.104;8.754;2023-04-06T13:14:48;10.07;;;6.00;;
22205;SDS011;11272;50.104;8.754;2023-04-06T13:17:16;12.90;;;7.17;;
22205;SDS011;11272;50.104;8.754;2023-04-06T13:19:42;12.10;;;7.13;;
22205;SDS011;11272;50.104;8.754;2023-04-06T13:22:08;10.27;;;6.43;;
22205;SDS011;11272;50.104;8.754;2023-04-06T13:24:34;7.73;;;4.30;;
22205;SDS011;11272;50.104;8.754;2023-04-06T13:26:59;10.40;;;6.40;;
22205;SDS011;11272;50.104;8.754;2023-04-06T13:29:26;10.90;;;5.97;;
22205;SDS011;11272;50.104;8.754;2023-04-06T13:31:52;11.67;;;6.50;;
22205;SDS011;11272;50.104;8.754;2023-04-06T13:34:18;12.30;;;6.40;;
22205;SDS011;11272;50.104;8.754;2023-04-06T13:36:44;10.53;;;6.30;;
22205;SDS011;11272;50.104;8.754;2023-04-06T13:39:09;10.73;;;6.33;;
22205;SDS011;11272;50.104;8.754;2023-04-06T13:41:35;14.00;;;7.10;;
22205;SDS011;11272;50.104;8.754;2023-04-06T13:44:00;11.30;;;7.17;;
22205;SDS011;11272;50.104;8.754;2023-04-06T13:46:26;15.60;;;6.70;;
22205;SDS011;11272;50.104;8.754;2023-04-06T13:48:52;8.13;;;5.47;;
22205;SDS011;11272;50.104;8.754;2023-04-06T13:51:18;9.20;;;6.03;;
22205;SDS011;11272;50.104;8.754;2023-04-06T13:53:43;10.30;;;6.37;;
22205;SDS011;11272;50.104;8.754;2023-04-06T13:56:12;10.30;;;6.03;;
22205;SDS011;11272;50.104;8.754;2023-04-06T13:58:37;9.63;;;5.97;;
22205;SDS011;11272;50.104;8.754;2023-04-06T14:01:04;13.83;;;6.20;;
22205;SDS011;11272;50.104;8.754;2023-04-06T14:03:32;10.87;;;5.50;;
22205;SDS011;11272;50.104;8.754;2023-04-06T14:05:58;13.37;;;6.93;;
22205;SDS011;11272;50.104;8.754;2023-04-06T14:08:24;11.93;;;6.90;;
22205;SDS011;11272;50.104;8.754;2023-04-06T14:10:50;10.83;;;7.00;;
22205;SDS011;11272;50.104;8.754;2023-04-06T14:13:16;10.63;;;6.67;;
22205;SDS011;11272;50.104;8.754;2023-04-06T14:15:42;10.17;;;6.97;;
22205;SDS011;11272;50.104;8.754;2023-04-06T14:18:08;10.07;;;6.30;;
22205;SDS011;11272;50.104;8.754;2023-04-06T14:20:34;9.63;;;5.50;;
22205;SDS011;11272;50.104;8.754;2023-04-06T14:23:00;13.47;;;5.77;;
22205;SDS011;11272;50.104;8.754;2023-04-06T14:25:27;13.20;;;6.40;;
22205;SDS011;11272;50.104;8.754;2023-04-06T14:27:53;11.67;;;6.07;;
22205;SDS011;11272;50.104;8.754;2023-04-06T14:30:19;8.33;;;5.73;;
22205;SDS011;11272;50.104;8.754;2023-04-06T14:32:45;10.40;;;6.17;;
22205;SDS011;11272;50.104;8.754;2023-04-06T14:35:11;10.73;;;6.10;;
22205;SDS011;11272;50.104;8.754;2023-04-06T14:37:37;9.03;;;5.60;;
22205;SDS011;11272;50.104;8.754;2023-04-06T14:40:04;12.20;;;5.67;;
22205;SDS011;11272;50.104;8.754;2023-04-06T14:42:30;13.50;;;4.83;;
22205;SDS011;11272;50.104;8.754;2023-04-06T14:44:56;9.60;;;5.30;;
22205;SDS011;11272;50.104;8.754;2023-04-06T14:47:22;6.20;;;4.03;;
22205;SDS011;11272;50.104;8.754;2023-04-06T14:49:50;8.87;;;5.90;;
22205;SDS011;11272;50.104;8.754;2023-04-06T14:52:16;10.90;;;5.63;;
22205;SDS011;11272;50.104;8.754;2023-04-06T14:54:42;8.07;;;5.20;;
22205;SDS011;11272;50.104;8.754;2023-04-06T14:57:08;9.33;;;5.50;;